Des Moines, Iowa
Current Conditions -  °F | °C
As of 11:54 PM on Wednesday 17 Dec 2014 (Local Time) from KDSM Reporting Station
Scattered Clouds Scattered Clouds  
Wind Chill: 15°   Ceiling: Unl
Heat Index: 21°   Visibility: 10mi
Dew Point: 15°   Wind: 5mph
Humidity: 78%   Direction: 220°SW
Pressure: 30.31"   Gusts: NA
Location:  41.59°N, 93.61°W
Report Text: KDSM 180554Z 22004KT 10SM FEW160 SCT300 M06/M09 A3031 RMK AO2 SLP277 T10611094 11039 21061 410111094 53002
Loading
Personal Weather Stations






























Interactive Weather Map New forecast layout! Learn more

10-Day Weather Forecast

Advertisements
Track Severe Weather on mobile